Share

Apia Wharf, Samoa

8:36 PM WST on April 25, 2014 (GMT +1300)
Faleolo International (NSFA) Elev 16 ft | 13.83 °S, 172.01 °W | Change Station

Current weather conditions updated 36 minutes ago

Scattered Clouds
Scattered Clouds
75 °F
Feels Like 75 °F
N
5
Wind Variable Wind from SSE
Sunrise 6:34 AM
Sunset 6:14 PM
Moon Waning Crescent

Tomorrow is forecast to be Cooler than today. Thunderstorms.

Pressure 29.83 in
Visibility 6.2 miles
Clouds Few 2000 ft
Scattered Clouds 4000 ft
Dew Point 75 °F
Humidity 100%
Rainfall 0.00 in
Snow Depth Not available.
UV 0 out of 16
Pollen Not available.
Air Quality Not available.
Flu Activity Not available.
METAR NSFA 250700Z 16004KT 9999 FEW020 SCT040 24/24 Q1010

More Conditions Fewer Conditions

Pressure 29.83 in
Visibility 6.2 miles
Clouds Few 2000 ft
Scattered Clouds 4000 ft
Dew Point 75 °F
Humidity 100%
Rainfall 0.00 in
Snow Depth Not available.
UV 0 out of 16
Pollen Not available.
Air Quality Not available.
Flu Activity Not available.
METAR NSFA 250700Z 16004KT 9999 FEW020 SCT040 24/24 Q1010

More Conditions Fewer Conditions

10-Day Weather Forecast

Almanac

Astronomy

Apr. 25, 2014 Rise Set
Actual Time 6:34 AM WST 6:14 PM WST
Civil Twilight 6:12 AM WST 6:36 PM WST
Nautical Twilight 5:47 AM WST 7:01 PM WST
Astronomical Twilight 5:22 AM WST 7:27 PM WST
Moon 2:28 AM WST 3:02 PM WST
Length of Visible Light 12h 23m
Length of Day
11h 40m
Tomorrow will be 0m 39s shorter.
Waning Crescent, 18% of the Moon is Illuminated
Today
Waning Crescent
Apr 29
New
May 6
First Quarter
May 14
Full
May 21
Last Quarter

Yesterday's Extremes

Country Highs Country Lows

Community

  • Deer in evening light
    Deer in evening light
  • Critter
    Critter
  • Jone Runs Falls
    Jone Runs Falls
  • Easter in Shenandoah National Park
    Easter in Shenandoah National Park
  • Sunset at Apalachicola Bay, Florida
    Sunset at Apalachicola Bay, Florida

WunderPhotos

Upload Photos

1,704,872 photos uploaded!

WunderBlogs® & News

Nearby

Snow Depth

Not available.

Coastal Water Temperatures

Place Temperature
No Stations Reporting

Earthquake Activity

City Distance Mag. Time & Date
No recent earthquake activity has been reported nearby.
Minimum magnitude displayed is 2.5.

Nearby Weather Stations

There are no personal weather stations in this area.

What do you think?

We're not finished. Please let us know what you like, what you don't like, and what you are still missing.